createdAt,value
2023-05-05T00:00:13.290Z,99.90
2023-05-05T00:02:41.405Z,99.90
2023-05-05T00:05:08.543Z,99.90
2023-05-05T00:07:35.387Z,99.90
2023-05-05T00:10:02.453Z,99.90
2023-05-05T00:12:29.406Z,99.90
2023-05-05T00:14:56.571Z,99.90
2023-05-05T00:17:23.443Z,99.90
2023-05-05T00:19:50.260Z,99.90
2023-05-05T00:22:17.102Z,99.90
2023-05-05T00:24:43.978Z,99.90
2023-05-05T00:27:11.041Z,99.90
2023-05-05T00:29:38.147Z,99.90
2023-05-05T00:32:05.148Z,99.90
2023-05-05T00:34:32.212Z,99.90
2023-05-05T00:36:59.018Z,99.90
2023-05-05T00:39:25.827Z,99.90
2023-05-05T00:42:03.748Z,99.90
2023-05-05T00:44:48.794Z,99.90
2023-05-05T00:47:16.777Z,99.90
2023-05-05T00:49:43.871Z,99.90
2023-05-05T01:48:55.994Z,99.90
2023-05-05T01:51:24.594Z,99.90
2023-05-05T01:54:25.698Z,99.90
2023-05-05T01:56:57.336Z,99.90
2023-05-05T01:59:26.534Z,99.90
2023-05-05T02:01:54.283Z,99.90
2023-05-05T02:04:22.863Z,99.90
2023-05-05T02:06:53.096Z,99.90
2023-05-05T02:09:21.665Z,99.90
2023-05-05T02:11:49.138Z,99.90
2023-05-05T02:14:19.236Z,99.90
2023-05-05T02:16:46.887Z,99.90
2023-05-05T02:19:15.094Z,99.90
2023-05-05T02:21:44.092Z,99.90
2023-05-05T02:24:11.478Z,99.90
2023-05-05T02:26:44.094Z,99.90
2023-05-05T02:29:17.444Z,99.90
2023-05-05T02:31:50.614Z,99.90
2023-05-05T02:34:23.911Z,99.90
2023-05-05T02:36:53.381Z,99.90
2023-05-05T02:39:25.927Z,99.90
2023-05-05T02:41:55.349Z,99.90
2023-05-05T02:44:24.679Z,99.90
2023-05-05T02:46:52.108Z,99.90
2023-05-05T02:49:21.625Z,99.90
2023-05-05T02:51:48.830Z,99.90
2023-05-05T02:54:15.809Z,99.90
2023-05-05T02:56:53.650Z,99.90
2023-05-05T02:59:42.291Z,99.90
2023-05-05T03:02:20.184Z,99.90
2023-05-05T03:05:06.678Z,99.90
2023-05-05T03:08:03.986Z,99.90
2023-05-05T03:10:36.436Z,99.90
2023-05-05T03:13:06.957Z,99.90
2023-05-05T03:15:43.102Z,99.90
2023-05-05T03:18:11.613Z,99.90
2023-05-05T03:21:15.294Z,99.90
2023-05-05T03:23:42.228Z,99.90
2023-05-05T03:26:09.060Z,99.90
2023-05-05T03:28:36.000Z,99.90
2023-05-05T03:31:03.818Z,99.90
2023-05-05T03:33:30.666Z,99.90
2023-05-05T03:36:03.941Z,99.90
2023-05-05T03:38:30.692Z,99.90
2023-05-05T03:40:57.499Z,99.90
2023-05-05T03:43:24.341Z,99.90
2023-05-05T03:45:51.190Z,99.90
2023-05-05T03:48:18.009Z,99.90
2023-05-05T03:50:48.882Z,99.90
2023-05-05T03:53:15.767Z,99.90
2023-05-05T03:55:42.661Z,99.90
2023-05-05T03:58:09.536Z,99.90
2023-05-05T04:00:36.397Z,99.90
2023-05-05T04:03:03.248Z,99.90
2023-05-05T04:05:30.180Z,99.90
2023-05-05T04:07:57.933Z,99.90
2023-05-05T04:10:24.828Z,99.90
2023-05-05T04:12:51.746Z,99.90
2023-05-05T04:15:18.549Z,99.90
2023-05-05T04:17:45.691Z,99.90
2023-05-05T04:20:19.847Z,99.90
2023-05-05T04:22:46.998Z,99.90
2023-05-05T04:25:13.921Z,99.90
2023-05-05T04:27:48.330Z,99.90
2023-05-05T04:30:15.091Z,99.90
2023-05-05T04:32:42.091Z,99.90
2023-05-05T04:35:09.053Z,99.90
2023-05-05T04:37:35.906Z,99.90
2023-05-05T04:40:10.742Z,99.90
2023-05-05T04:42:37.647Z,99.90
2023-05-05T04:45:04.901Z,99.90
2023-05-05T04:47:32.332Z,99.90
2023-05-05T04:50:08.794Z,99.90
2023-05-05T04:52:36.057Z,99.90
2023-05-05T04:55:02.985Z,99.90
2023-05-05T04:57:30.664Z,99.90
2023-05-05T04:59:59.439Z,99.90
2023-05-05T05:02:28.509Z,99.90
2023-05-05T05:05:03.486Z,99.90
2023-05-05T05:07:31.607Z,99.90
2023-05-05T05:09:58.602Z,99.90
2023-05-05T05:12:25.544Z,99.90
2023-05-05T05:14:52.574Z,99.90
2023-05-05T05:17:20.845Z,99.90
2023-05-05T05:19:47.686Z,99.90
2023-05-05T05:22:14.536Z,99.90
2023-05-05T05:24:41.539Z,99.90
2023-05-05T05:27:10.122Z,99.90
2023-05-05T05:29:37.561Z,99.90
2023-05-05T05:32:04.688Z,99.90
2023-05-05T05:34:31.569Z,99.90
2023-05-05T05:36:58.381Z,99.90
2023-05-05T05:39:25.162Z,99.90
2023-05-05T05:41:52.042Z,99.90
2023-05-05T05:44:18.840Z,99.90
2023-05-05T05:46:45.593Z,99.90
2023-05-05T05:49:12.427Z,99.90
2023-05-05T05:51:39.321Z,99.90
2023-05-05T05:54:06.152Z,99.90
2023-05-05T05:56:33.168Z,99.90
2023-05-05T05:59:01.388Z,99.90
2023-05-05T06:01:28.174Z,99.90
2023-05-05T06:03:55.025Z,99.90
2023-05-05T06:06:22.295Z,99.90
2023-05-05T06:08:49.153Z,99.90
2023-05-05T06:11:16.138Z,99.90
2023-05-05T06:13:43.146Z,99.90
2023-05-05T06:16:10.105Z,99.90
2023-05-05T06:18:36.947Z,99.90
2023-05-05T06:21:03.862Z,99.90
2023-05-05T06:23:30.914Z,99.90
2023-05-05T06:25:57.771Z,99.90
2023-05-05T06:28:24.779Z,99.90
2023-05-05T06:30:51.879Z,99.90
2023-05-05T06:33:18.868Z,99.90
2023-05-05T06:35:45.857Z,99.90
2023-05-05T06:38:18.682Z,99.90
2023-05-05T06:40:48.689Z,99.90
2023-05-05T06:43:15.766Z,99.90
2023-05-05T06:45:43.898Z,99.90
2023-05-05T06:48:10.951Z,99.90
2023-05-05T06:50:38.250Z,99.90
2023-05-05T06:53:05.100Z,99.90
2023-05-05T06:55:31.944Z,99.90
2023-05-05T06:57:59.097Z,99.90
2023-05-05T07:00:26.003Z,99.90
2023-05-05T07:02:52.857Z,99.90
2023-05-05T07:05:19.861Z,99.90
2023-05-05T07:07:54.426Z,99.90
2023-05-05T07:10:22.708Z,99.90
2023-05-05T07:12:50.072Z,99.90
2023-05-05T07:15:28.197Z,99.90
2023-05-05T07:17:56.918Z,99.90
2023-05-05T07:20:24.706Z,99.90
2023-05-05T07:22:51.751Z,99.90
2023-05-05T07:25:18.716Z,99.90
2023-05-05T07:27:45.650Z,99.90
2023-05-05T07:30:15.594Z,99.90
2023-05-05T07:32:45.145Z,97.30
2023-05-05T07:35:12.107Z,92.20
2023-05-05T07:37:39.195Z,90.70
2023-05-05T07:40:06.837Z,86.80
2023-05-05T07:42:33.805Z,84.30
2023-05-05T07:45:00.759Z,81.40
2023-05-05T07:47:27.632Z,77.70
2023-05-05T07:49:54.655Z,74.00
2023-05-05T07:52:30.082Z,69.70
2023-05-05T07:55:00.326Z,68.50
2023-05-05T07:57:27.304Z,68.80
2023-05-05T07:59:54.137Z,67.20
2023-05-05T08:02:22.488Z,65.60
2023-05-05T08:04:49.687Z,62.50
2023-05-05T08:07:16.658Z,61.10
2023-05-05T08:09:43.547Z,59.40
2023-05-05T08:12:12.397Z,59.00
2023-05-05T08:14:40.778Z,58.60
2023-05-05T08:17:07.615Z,59.20
2023-05-05T08:19:34.675Z,59.20
2023-05-05T08:22:01.725Z,58.00
2023-05-05T08:24:28.700Z,57.70
2023-05-05T08:26:56.710Z,57.30
2023-05-05T08:29:23.790Z,57.10
2023-05-05T08:31:53.363Z,56.80
2023-05-05T08:34:20.278Z,56.30
2023-05-05T08:36:49.112Z,55.40
2023-05-05T08:39:16.484Z,53.80
2023-05-05T08:41:43.435Z,54.40
2023-05-05T08:44:11.069Z,53.70
2023-05-05T08:46:39.285Z,54.20
2023-05-05T08:49:07.869Z,53.10
2023-05-05T08:51:42.037Z,52.90
2023-05-05T08:54:14.596Z,54.00
2023-05-05T08:56:42.701Z,54.60
2023-05-05T08:59:12.355Z,55.50
2023-05-05T09:01:41.771Z,55.40
2023-05-05T09:04:09.168Z,55.20
2023-05-05T09:06:37.187Z,55.20
2023-05-05T09:09:04.138Z,56.40
2023-05-05T09:11:32.828Z,56.70
2023-05-05T09:14:05.913Z,57.10
2023-05-05T09:16:33.312Z,56.70
2023-05-05T09:19:04.383Z,56.00
2023-05-05T09:21:32.344Z,56.10
2023-05-05T09:24:09.689Z,56.60
2023-05-05T09:26:47.853Z,56.70
2023-05-05T09:29:19.506Z,57.00
2023-05-05T09:32:08.429Z,58.10
2023-05-05T09:34:36.378Z,58.40
2023-05-05T09:37:03.661Z,59.00
2023-05-05T09:39:30.710Z,59.00
2023-05-05T09:41:58.471Z,58.80
2023-05-05T09:44:43.385Z,57.90
2023-05-05T09:47:26.143Z,59.30
2023-05-05T09:49:59.228Z,58.80
2023-05-05T09:52:26.356Z,59.70
2023-05-05T09:54:57.319Z,60.00
2023-05-05T09:57:29.133Z,60.80
2023-05-05T10:00:01.280Z,60.40
2023-05-05T10:02:36.035Z,61.30
2023-05-05T10:05:11.798Z,59.70
2023-05-05T10:07:40.454Z,60.70
2023-05-05T10:10:10.272Z,62.20
2023-05-05T10:12:38.092Z,62.10
2023-05-05T10:15:06.782Z,61.50
2023-05-05T10:17:37.693Z,60.60
2023-05-05T10:20:07.387Z,59.40
2023-05-05T10:22:35.886Z,59.10
2023-05-05T10:25:09.241Z,60.50
2023-05-05T10:27:53.786Z,62.40
2023-05-05T10:30:28.153Z,63.00
2023-05-05T10:33:18.517Z,63.00
2023-05-05T10:35:57.234Z,62.00
2023-05-05T10:38:27.826Z,63.80
2023-05-05T10:40:56.436Z,62.90
2023-05-05T10:43:24.525Z,62.40
2023-05-05T10:45:51.928Z,62.40
2023-05-05T10:48:37.087Z,63.10
2023-05-05T10:51:31.081Z,61.00
2023-05-05T10:54:32.721Z,60.20
2023-05-05T10:57:04.865Z,60.90
2023-05-05T10:59:38.268Z,60.60
2023-05-05T11:02:18.334Z,60.20
2023-05-05T11:05:07.150Z,57.40
2023-05-05T11:07:37.093Z,57.40
2023-05-05T11:10:06.413Z,59.30
2023-05-05T11:12:53.065Z,61.20
2023-05-05T11:15:29.538Z,61.50
2023-05-05T11:18:06.768Z,59.80
2023-05-05T11:20:37.675Z,58.80
2023-05-05T11:23:05.192Z,58.40
2023-05-05T11:25:39.098Z,58.00
2023-05-05T11:28:09.694Z,58.80
2023-05-05T11:31:03.723Z,58.60
2023-05-05T11:33:37.433Z,59.10
2023-05-05T11:36:06.971Z,60.00
2023-05-05T11:38:58.967Z,61.70
2023-05-05T11:41:40.948Z,63.00
2023-05-05T11:44:15.576Z,62.70
2023-05-05T11:46:51.597Z,64.50
2023-05-05T11:49:38.823Z,65.20
2023-05-05T11:52:12.435Z,65.90
2023-05-05T11:54:48.137Z,67.20
2023-05-05T11:57:17.355Z,69.20
2023-05-05T12:00:02.158Z,70.50
2023-05-05T12:02:30.289Z,72.50
2023-05-05T12:04:58.847Z,72.70
2023-05-05T12:07:28.203Z,74.10
2023-05-05T12:09:57.222Z,75.60
2023-05-05T12:12:35.600Z,77.20
2023-05-05T12:15:02.686Z,77.90
2023-05-05T12:17:45.943Z,79.30
2023-05-05T12:20:13.545Z,79.60
2023-05-05T12:22:40.827Z,80.10
2023-05-05T12:25:08.776Z,80.90
2023-05-05T12:27:35.989Z,81.30
2023-05-05T12:30:17.345Z,81.80
2023-05-05T12:32:47.919Z,82.40
2023-05-05T12:35:16.003Z,83.40
2023-05-05T12:37:43.563Z,85.50
2023-05-05T12:40:46.808Z,87.60
2023-05-05T12:43:29.702Z,90.00
2023-05-05T12:46:07.137Z,91.50
2023-05-05T12:48:35.859Z,93.10
2023-05-05T12:51:23.491Z,94.90
2023-05-05T12:54:05.714Z,96.70
2023-05-05T12:56:46.485Z,98.30
2023-05-05T12:59:22.442Z,99.90
2023-05-05T13:01:52.357Z,99.90
2023-05-05T13:04:21.013Z,99.90
2023-05-05T13:06:50.203Z,99.90
2023-05-05T13:09:33.839Z,99.90
2023-05-05T13:12:03.138Z,99.90
2023-05-05T13:14:31.558Z,99.90
2023-05-05T13:17:06.707Z,99.90
2023-05-05T13:19:35.674Z,99.90
2023-05-05T13:22:02.627Z,99.90
2023-05-05T13:24:46.588Z,99.90
2023-05-05T13:27:19.278Z,99.90
2023-05-05T13:29:46.209Z,99.90
2023-05-05T13:32:13.073Z,99.90
2023-05-05T13:34:40.049Z,99.90
2023-05-05T13:37:07.148Z,99.90
2023-05-05T13:39:34.120Z,99.90
2023-05-05T13:42:00.983Z,99.90
2023-05-05T13:44:29.401Z,99.90
2023-05-05T13:46:56.248Z,99.90
2023-05-05T13:49:23.034Z,99.90
2023-05-05T13:51:49.940Z,99.90
2023-05-05T13:54:16.833Z,99.90
2023-05-05T13:56:43.929Z,99.90
2023-05-05T13:59:10.823Z,99.90
2023-05-05T14:01:38.287Z,99.90
2023-05-05T14:04:05.923Z,99.90
2023-05-05T14:06:33.764Z,99.90
2023-05-05T14:09:00.707Z,99.90
2023-05-05T14:11:31.598Z,99.90
2023-05-05T14:13:58.472Z,99.90
2023-05-05T14:16:25.448Z,99.90
2023-05-05T14:18:52.678Z,99.90
2023-05-05T14:21:19.740Z,99.90
2023-05-05T14:23:46.657Z,99.90
2023-05-05T14:26:13.456Z,99.90
2023-05-05T14:28:40.258Z,99.90
2023-05-05T14:31:07.068Z,99.90
2023-05-05T14:33:33.894Z,99.90
2023-05-05T14:36:00.738Z,99.90
2023-05-05T14:38:27.823Z,99.90
2023-05-05T14:40:54.737Z,99.90
2023-05-05T14:43:22.206Z,99.90
2023-05-05T14:45:49.119Z,99.90
2023-05-05T14:48:15.954Z,99.90
2023-05-05T14:50:42.848Z,99.90
2023-05-05T14:53:09.699Z,99.90
2023-05-05T14:55:37.178Z,99.90
2023-05-05T14:58:04.135Z,99.90
2023-05-05T15:00:31.176Z,99.90
2023-05-05T15:02:58.128Z,99.90
2023-05-05T15:05:24.967Z,99.90
2023-05-05T15:07:51.832Z,99.90
2023-05-05T15:10:21.715Z,99.90
2023-05-05T15:12:49.168Z,99.90
2023-05-05T15:15:16.039Z,99.90
2023-05-05T15:17:43.228Z,99.90
2023-05-05T15:20:10.612Z,99.90
2023-05-05T15:22:37.580Z,99.90
2023-05-05T15:25:04.814Z,99.90
2023-05-05T15:27:31.841Z,99.90
2023-05-05T15:29:58.841Z,99.90
2023-05-05T15:32:25.703Z,99.90
2023-05-05T15:34:52.658Z,99.90
2023-05-05T15:37:19.442Z,99.90
2023-05-05T15:39:46.774Z,99.90
2023-05-05T15:42:13.649Z,99.90
2023-05-05T15:44:40.483Z,99.90
2023-05-05T15:47:07.544Z,99.90
2023-05-05T15:49:34.496Z,99.90
2023-05-05T15:52:01.354Z,99.90
2023-05-05T15:54:28.354Z,99.90
2023-05-05T15:56:55.262Z,99.90
2023-05-05T15:59:22.843Z,99.90
2023-05-05T16:01:56.013Z,99.90
2023-05-05T16:04:22.857Z,99.90
2023-05-05T16:06:49.633Z,99.90
2023-05-05T16:09:16.517Z,99.90
2023-05-05T16:11:43.698Z,99.90
2023-05-05T16:14:10.736Z,99.90
2023-05-05T16:16:37.594Z,99.90
2023-05-05T16:19:04.548Z,99.90
2023-05-05T16:21:31.544Z,99.90
2023-05-05T16:23:58.453Z,99.90
2023-05-05T16:26:25.267Z,99.90
2023-05-05T16:28:52.654Z,99.90
2023-05-05T16:31:19.499Z,99.90
2023-05-05T16:33:46.415Z,99.90
2023-05-05T16:36:16.049Z,99.90
2023-05-05T16:38:44.072Z,99.90
2023-05-05T16:41:11.424Z,99.90
2023-05-05T16:43:38.370Z,99.90
2023-05-05T16:46:06.358Z,99.90
2023-05-05T16:48:33.270Z,99.90
2023-05-05T16:51:00.190Z,99.90
2023-05-05T16:53:27.119Z,99.90
2023-05-05T16:55:54.173Z,99.90
2023-05-05T16:58:22.486Z,99.90
2023-05-05T17:00:50.055Z,99.90
2023-05-05T17:03:18.057Z,99.90
2023-05-05T17:05:49.047Z,99.90
2023-05-05T17:08:16.783Z,99.90
2023-05-05T17:10:46.110Z,99.90
2023-05-05T17:13:14.132Z,99.90
2023-05-05T17:15:41.846Z,99.90
2023-05-05T17:18:11.294Z,99.90
2023-05-05T17:20:44.559Z,99.90
2023-05-05T17:23:11.368Z,99.90
2023-05-05T17:25:38.285Z,99.90
2023-05-05T17:28:05.413Z,99.90
2023-05-05T17:30:32.324Z,99.90
2023-05-05T17:32:59.500Z,99.90
2023-05-05T17:35:26.828Z,99.90
2023-05-05T17:37:53.841Z,99.90
2023-05-05T17:40:20.707Z,99.90
2023-05-05T17:42:47.580Z,99.90
2023-05-05T17:45:14.429Z,99.90
2023-05-05T17:47:41.419Z,99.90
2023-05-05T17:50:10.696Z,99.90
2023-05-05T17:52:37.983Z,99.90
2023-05-05T17:55:05.162Z,99.90
2023-05-05T17:57:32.053Z,99.90
2023-05-05T17:59:58.984Z,99.90
2023-05-05T18:02:28.944Z,99.90
2023-05-05T18:04:56.033Z,99.90
2023-05-05T18:07:22.920Z,99.90
2023-05-05T18:09:49.739Z,99.90
2023-05-05T18:12:17.538Z,99.90
2023-05-05T18:14:44.384Z,99.90
2023-05-05T18:17:11.297Z,99.90
2023-05-05T18:19:42.217Z,99.90
2023-05-05T18:22:09.063Z,99.90
2023-05-05T18:24:35.914Z,99.90
2023-05-05T18:27:05.146Z,99.90
2023-05-05T18:29:32.072Z,99.90
2023-05-05T18:31:58.891Z,99.90
2023-05-05T18:34:26.295Z,99.90
2023-05-05T18:36:57.120Z,99.90
2023-05-05T18:39:24.467Z,99.90
2023-05-05T18:41:51.393Z,99.90
2023-05-05T18:44:19.794Z,99.90
2023-05-05T18:46:57.032Z,99.90
2023-05-05T18:49:24.770Z,99.90
2023-05-05T18:51:52.414Z,99.90
2023-05-05T18:54:21.153Z,99.90
2023-05-05T18:56:48.086Z,99.90
2023-05-05T18:59:14.913Z,99.90
2023-05-05T19:01:44.780Z,99.90
2023-05-05T19:04:26.765Z,99.90
2023-05-05T19:06:57.630Z,99.90
2023-05-05T19:09:24.683Z,99.90
2023-05-05T19:11:51.499Z,99.90
2023-05-05T19:14:18.375Z,99.90
2023-05-05T19:16:45.372Z,99.90
2023-05-05T19:19:12.285Z,99.90
2023-05-05T19:21:39.189Z,99.90
2023-05-05T19:24:10.194Z,99.90
2023-05-05T19:26:37.235Z,99.90
2023-05-05T19:29:04.101Z,99.90
2023-05-05T19:31:31.406Z,99.90
2023-05-05T19:34:06.917Z,99.90
2023-05-05T19:36:34.587Z,99.90
2023-05-05T19:39:02.439Z,99.90
2023-05-05T19:41:30.790Z,99.90
2023-05-05T19:43:57.922Z,99.90
2023-05-05T19:46:27.631Z,99.90
2023-05-05T19:48:54.584Z,99.90
2023-05-05T19:51:21.638Z,99.90
2023-05-05T19:53:48.554Z,99.90
2023-05-05T19:56:15.476Z,99.90
2023-05-05T19:59:00.453Z,99.90
2023-05-05T20:01:29.029Z,99.90
2023-05-05T20:03:57.329Z,99.90
2023-05-05T20:06:24.604Z,99.90
2023-05-05T20:08:51.645Z,99.90
2023-05-05T20:11:19.738Z,99.90
2023-05-05T20:13:46.870Z,99.90
2023-05-05T20:16:14.780Z,99.90
2023-05-05T20:18:41.701Z,99.90
2023-05-05T20:21:08.548Z,99.90
2023-05-05T20:23:35.969Z,99.90
2023-05-05T20:26:02.836Z,99.90
2023-05-05T20:28:33.730Z,99.90
2023-05-05T20:31:01.106Z,99.90
2023-05-05T20:33:28.754Z,99.90
2023-05-05T20:35:55.952Z,99.90
2023-05-05T20:38:23.009Z,99.90
2023-05-05T20:40:50.554Z,99.90
2023-05-05T20:43:21.224Z,99.90
2023-05-05T20:45:49.324Z,99.90
2023-05-05T20:48:16.315Z,99.90
2023-05-05T20:50:44.980Z,99.90
2023-05-05T20:53:15.238Z,99.90
2023-05-05T20:55:44.883Z,99.90
2023-05-05T20:58:11.726Z,99.90
2023-05-05T21:00:41.473Z,99.90
2023-05-05T21:03:08.971Z,99.90
2023-05-05T21:05:37.166Z,99.90
2023-05-05T21:08:05.253Z,99.90
2023-05-05T21:10:39.155Z,99.90
2023-05-05T21:13:06.153Z,99.90
2023-05-05T21:15:37.241Z,99.90
2023-05-05T21:18:04.474Z,99.90
2023-05-05T21:20:31.415Z,99.90
2023-05-05T21:22:58.325Z,99.90
2023-05-05T21:25:25.501Z,99.90
2023-05-05T21:27:59.753Z,99.90
2023-05-05T21:30:26.918Z,99.90
2023-05-05T21:32:57.154Z,99.90
2023-05-05T21:35:33.139Z,99.90
2023-05-05T21:37:59.994Z,99.90
2023-05-05T21:40:26.810Z,99.90
2023-05-05T21:42:53.886Z,99.90
2023-05-05T21:45:20.864Z,99.90
2023-05-05T21:47:47.718Z,99.90
2023-05-05T21:50:14.607Z,99.90
2023-05-05T21:52:41.453Z,99.90
2023-05-05T21:55:10.970Z,99.90
2023-05-05T21:57:38.026Z,99.90
2023-05-05T22:00:06.063Z,99.90
2023-05-05T22:02:33.604Z,99.90
2023-05-05T22:05:00.485Z,99.90
2023-05-05T22:07:27.277Z,99.90
2023-05-05T22:09:54.260Z,99.90
2023-05-05T22:12:21.102Z,99.90
2023-05-05T22:14:48.022Z,99.90
2023-05-05T22:17:14.821Z,99.90
2023-05-05T22:19:41.622Z,99.90
2023-05-05T22:22:08.391Z,99.90
2023-05-05T22:24:35.233Z,99.90
2023-05-05T22:27:02.094Z,99.90
2023-05-05T22:29:28.993Z,99.90
2023-05-05T22:31:55.993Z,99.90
2023-05-05T22:34:25.949Z,99.90
2023-05-05T22:36:52.773Z,99.90
2023-05-05T22:39:19.629Z,99.90
2023-05-05T22:41:47.138Z,99.90
2023-05-05T22:44:14.148Z,99.90
2023-05-05T22:46:41.277Z,99.90
2023-05-05T22:49:15.081Z,99.90
2023-05-05T22:51:41.964Z,99.90
2023-05-05T22:54:08.824Z,99.90
2023-05-05T22:56:36.178Z,99.90
2023-05-05T22:59:03.167Z,99.90
2023-05-05T23:01:30.568Z,99.90
2023-05-05T23:03:57.502Z,99.90
2023-05-05T23:06:24.592Z,99.90
2023-05-05T23:08:51.527Z,99.90
2023-05-05T23:11:18.367Z,99.90
2023-05-05T23:13:45.300Z,99.90
2023-05-05T23:16:12.242Z,99.90
2023-05-05T23:18:39.228Z,99.90
2023-05-05T23:21:06.310Z,99.90
2023-05-05T23:23:33.308Z,99.90
2023-05-05T23:26:00.143Z,99.90
2023-05-05T23:28:26.982Z,99.90
2023-05-05T23:30:53.856Z,99.90
2023-05-05T23:33:20.671Z,99.90
2023-05-05T23:35:48.055Z,99.90
2023-05-05T23:38:15.215Z,99.90
2023-05-05T23:40:48.714Z,99.90
2023-05-05T23:43:18.194Z,99.90
2023-05-05T23:45:45.040Z,99.90
2023-05-05T23:48:12.220Z,99.90
2023-05-05T23:50:39.463Z,99.90
2023-05-05T23:53:06.324Z,99.90
2023-05-05T23:55:33.266Z,99.90
2023-05-05T23:58:00.065Z,99.90
